sensor_id;sensor_type;location;lat;lon;timestamp;pressure;altitude;pressure_sealevel;temperature;humidity
48216;BME280;34005;48.844;10.098;2023-04-01T00:01:52;95348.19;;;10.46;62.74
48216;BME280;34005;48.844;10.098;2023-04-01T00:04:20;95344.78;;;10.45;63.94
48216;BME280;34005;48.844;10.098;2023-04-01T00:06:49;95344.41;;;10.42;63.45
48216;BME280;34005;48.844;10.098;2023-04-01T00:09:17;95343.66;;;10.35;63.93
48216;BME280;34005;48.844;10.098;2023-04-01T00:11:45;95332.06;;;10.30;63.95
48216;BME280;34005;48.844;10.098;2023-04-01T00:14:13;95341.25;;;10.33;63.62
48216;BME280;34005;48.844;10.098;2023-04-01T00:16:40;95343.66;;;10.35;63.78
48216;BME280;34005;48.844;10.098;2023-04-01T00:19:08;95338.44;;;10.35;64.43
48216;BME280;34005;48.844;10.098;2023-04-01T00:21:35;95334.81;;;10.36;64.35
48216;BME280;34005;48.844;10.098;2023-04-01T00:24:05;95330.41;;;10.36;64.14
48216;BME280;34005;48.844;10.098;2023-04-01T00:26:33;95335.63;;;10.36;63.47
48216;BME280;34005;48.844;10.098;2023-04-01T00:29:00;95340.81;;;10.36;64.16
48216;BME280;34005;48.844;10.098;2023-04-01T00:31:28;95334.03;;;10.35;63.29
48216;BME280;34005;48.844;10.098;2023-04-01T00:33:56;95332.41;;;10.34;63.74
48216;BME280;34005;48.844;10.098;2023-04-01T00:36:23;95322.00;;;10.34;62.91
48216;BME280;34005;48.844;10.098;2023-04-01T00:38:51;95331.63;;;10.34;62.37
48216;BME280;34005;48.844;10.098;2023-04-01T00:41:20;95335.44;;;10.31;62.90
48216;BME280;34005;48.844;10.098;2023-04-01T00:43:50;95337.28;;;10.30;63.97
48216;BME280;34005;48.844;10.098;2023-04-01T00:46:18;95334.66;;;10.30;63.28
48216;BME280;34005;48.844;10.098;2023-04-01T00:48:48;95326.84;;;10.30;63.24
48216;BME280;34005;48.844;10.098;2023-04-01T00:51:20;95338.25;;;10.29;64.50
48216;BME280;34005;48.844;10.098;2023-04-01T00:53:51;95332.06;;;10.30;63.19
48216;BME280;34005;48.844;10.098;2023-04-01T00:56:22;95334.66;;;10.30;64.97
48216;BME280;34005;48.844;10.098;2023-04-01T00:58:54;95330.44;;;10.29;64.23
48216;BME280;34005;48.844;10.098;2023-04-01T01:01:24;95342.84;;;10.27;64.36
48216;BME280;34005;48.844;10.098;2023-04-01T01:03:53;95325.22;;;10.29;65.16
48216;BME280;34005;48.844;10.098;2023-04-01T01:06:30;95322.63;;;10.29;63.29
48216;BME280;34005;48.844;10.098;2023-04-01T01:09:13;95320.00;;;10.29;65.25
48216;BME280;34005;48.844;10.098;2023-04-01T01:11:48;95321.63;;;10.30;64.34
48216;BME280;34005;48.844;10.098;2023-04-01T01:14:32;95328.44;;;10.31;66.64
48216;BME280;34005;48.844;10.098;2023-04-01T01:17:07;95330.03;;;10.33;63.59
48216;BME280;34005;48.844;10.098;2023-04-01T01:20:02;95321.19;;;10.34;63.26
48216;BME280;34005;48.844;10.098;2023-04-01T01:23:01;95323.63;;;10.28;63.88
48216;BME280;34005;48.844;10.098;2023-04-01T01:25:37;95326.84;;;10.30;63.90
48216;BME280;34005;48.844;10.098;2023-04-01T01:28:14;95316.63;;;10.29;62.92
48216;BME280;34005;48.844;10.098;2023-04-01T01:30:51;95328.88;;;10.22;61.54
48216;BME280;34005;48.844;10.098;2023-04-01T01:33:32;95311.63;;;10.21;63.66
48216;BME280;34005;48.844;10.098;2023-04-01T01:36:04;95311.63;;;10.21;63.48
48216;BME280;34005;48.844;10.098;2023-04-01T01:38:34;95315.66;;;10.23;63.79
48216;BME280;34005;48.844;10.098;2023-04-01T01:41:04;95335.47;;;10.24;62.74
48216;BME280;34005;48.844;10.098;2023-04-01T01:43:35;95330.69;;;10.21;63.20
48216;BME280;34005;48.844;10.098;2023-04-01T01:46:07;95319.09;;;10.17;62.44
48216;BME280;34005;48.844;10.098;2023-04-01T01:48:37;95319.28;;;10.16;63.47
48216;BME280;34005;48.844;10.098;2023-04-01T01:51:08;95323.50;;;10.17;65.05
48216;BME280;34005;48.844;10.098;2023-04-01T01:53:36;95332.91;;;10.18;64.67
48216;BME280;34005;48.844;10.098;2023-04-01T01:56:04;95327.91;;;10.16;64.15
48216;BME280;34005;48.844;10.098;2023-04-01T01:58:34;95330.13;;;10.13;65.10
48216;BME280;34005;48.844;10.098;2023-04-01T02:01:09;95318.53;;;10.08;64.62
48216;BME280;34005;48.844;10.098;2023-04-01T02:03:39;95327.56;;;10.06;63.99
48216;BME280;34005;48.844;10.098;2023-04-01T02:06:11;95326.16;;;10.03;65.86
48216;BME280;34005;48.844;10.098;2023-04-01T02:08:43;95324.78;;;10.01;65.09
48216;BME280;34005;48.844;10.098;2023-04-01T02:11:15;95319.22;;;9.97;64.80
48216;BME280;34005;48.844;10.098;2023-04-01T02:13:45;95331.41;;;9.97;65.05
48216;BME280;34005;48.844;10.098;2023-04-01T02:16:18;95320.63;;;9.93;65.98
48216;BME280;34005;48.844;10.098;2023-04-01T02:18:50;95323.81;;;9.95;65.55
48216;BME280;34005;48.844;10.098;2023-04-01T02:21:22;95319.41;;;9.96;65.65
48216;BME280;34005;48.844;10.098;2023-04-01T02:23:52;95334.25;;;9.95;65.75
48216;BME280;34005;48.844;10.098;2023-04-01T02:26:21;95323.00;;;9.95;66.63
48216;BME280;34005;48.844;10.098;2023-04-01T02:28:50;95330.81;;;9.95;65.66
48216;BME280;34005;48.844;10.098;2023-04-01T02:31:20;95323.44;;;9.92;65.56
48216;BME280;34005;48.844;10.098;2023-04-01T02:33:48;95324.84;;;9.87;66.48
48216;BME280;34005;48.844;10.098;2023-04-01T02:36:17;95335.69;;;9.84;65.91
48216;BME280;34005;48.844;10.098;2023-04-01T02:38:46;95337.91;;;9.81;67.62
48216;BME280;34005;48.844;10.098;2023-04-01T02:41:15;95336.31;;;9.80;67.44
48216;BME280;34005;48.844;10.098;2023-04-01T02:43:42;95328.28;;;9.81;68.04
48216;BME280;34005;48.844;10.098;2023-04-01T02:46:10;95327.09;;;9.84;67.35
48216;BME280;34005;48.844;10.098;2023-04-01T02:48:37;95330.50;;;9.84;68.49
48216;BME280;34005;48.844;10.098;2023-04-01T02:51:05;95328.88;;;9.83;67.15
48216;BME280;34005;48.844;10.098;2023-04-01T02:53:32;95332.50;;;9.82;67.36
48216;BME280;34005;48.844;10.098;2023-04-01T02:56:01;95326.69;;;9.80;67.38
48216;BME280;34005;48.844;10.098;2023-04-01T02:58:29;95332.31;;;9.77;66.88
48216;BME280;34005;48.844;10.098;2023-04-01T03:00:56;95339.56;;;9.75;68.00
48216;BME280;34005;48.844;10.098;2023-04-01T03:03:24;95340.13;;;9.77;67.96
48216;BME280;34005;48.844;10.098;2023-04-01T03:05:52;95335.72;;;9.78;67.94
48216;BME280;34005;48.844;10.098;2023-04-01T03:08:21;95328.31;;;9.75;66.46
48216;BME280;34005;48.844;10.098;2023-04-01T03:10:49;95343.78;;;9.69;67.25
48216;BME280;34005;48.844;10.098;2023-04-01T03:13:18;95342.38;;;9.67;67.59
48216;BME280;34005;48.844;10.098;2023-04-01T03:15:45;95347.00;;;9.65;67.01
48216;BME280;34005;48.844;10.098;2023-04-01T03:18:13;95348.81;;;9.64;66.80
48216;BME280;34005;48.844;10.098;2023-04-01T03:20:41;95340.81;;;9.59;65.55
48216;BME280;34005;48.844;10.098;2023-04-01T03:23:08;95343.03;;;9.56;66.82
48216;BME280;34005;48.844;10.098;2023-04-01T03:25:36;95352.84;;;9.54;66.28
48216;BME280;34005;48.844;10.098;2023-04-01T03:28:04;95337.81;;;9.56;66.51
48216;BME280;34005;48.844;10.098;2023-04-01T03:30:33;95349.81;;;9.57;66.70
48216;BME280;34005;48.844;10.098;2023-04-01T03:33:00;95351.03;;;9.54;66.01
48216;BME280;34005;48.844;10.098;2023-04-01T03:35:29;95339.84;;;9.54;65.55
48216;BME280;34005;48.844;10.098;2023-04-01T03:37:57;95336.63;;;9.52;66.28
48216;BME280;34005;48.844;10.098;2023-04-01T03:40:24;95353.06;;;9.52;66.10
48216;BME280;34005;48.844;10.098;2023-04-01T03:42:52;95334.63;;;9.54;65.91
48216;BME280;34005;48.844;10.098;2023-04-01T03:45:20;95340.19;;;9.57;66.75
48216;BME280;34005;48.844;10.098;2023-04-01T03:47:48;95345.81;;;9.61;65.92
48216;BME280;34005;48.844;10.098;2023-04-01T03:50:16;95336.00;;;9.63;66.88
48216;BME280;34005;48.844;10.098;2023-04-01T03:52:44;95340.81;;;9.59;65.46
48216;BME280;34005;48.844;10.098;2023-04-01T03:55:12;95339.41;;;9.57;66.42
48216;BME280;34005;48.844;10.098;2023-04-01T03:57:39;95345.63;;;9.56;65.54
48216;BME280;34005;48.844;10.098;2023-04-01T04:00:08;95344.81;;;9.55;65.87
48216;BME280;34005;48.844;10.098;2023-04-01T04:02:35;95342.00;;;9.57;66.18
48216;BME280;34005;48.844;10.098;2023-04-01T04:05:05;95339.41;;;9.57;66.66
48216;BME280;34005;48.844;10.098;2023-04-01T04:07:34;95344.03;;;9.55;64.58
48216;BME280;34005;48.844;10.098;2023-04-01T04:10:01;95337.22;;;9.54;65.70
48216;BME280;34005;48.844;10.098;2023-04-01T04:12:29;95335.22;;;9.56;63.97
48216;BME280;34005;48.844;10.098;2023-04-01T04:14:56;95336.22;;;9.55;64.07
48216;BME280;34005;48.844;10.098;2023-04-01T04:17:24;95360.84;;;9.52;63.77
48216;BME280;34005;48.844;10.098;2023-04-01T04:19:52;95358.88;;;9.47;64.71
48216;BME280;34005;48.844;10.098;2023-04-01T04:22:21;95347.88;;;9.45;65.19
48216;BME280;34005;48.844;10.098;2023-04-01T04:24:48;95348.84;;;9.44;65.55
48216;BME280;34005;48.844;10.098;2023-04-01T04:27:16;95344.84;;;9.42;64.71
48216;BME280;34005;48.844;10.098;2023-04-01T04:29:43;95343.28;;;9.41;65.57
48216;BME280;34005;48.844;10.098;2023-04-01T04:32:11;95347.69;;;9.40;65.22
48216;BME280;34005;48.844;10.098;2023-04-01T04:34:38;95344.06;;;9.41;63.88
48216;BME280;34005;48.844;10.098;2023-04-01T04:37:06;95348.88;;;9.38;64.19
48216;BME280;34005;48.844;10.098;2023-04-01T04:39:35;95336.09;;;9.36;65.27
48216;BME280;34005;48.844;10.098;2023-04-01T04:42:03;95338.09;;;9.34;65.50
48216;BME280;34005;48.844;10.098;2023-04-01T04:44:30;95328.91;;;9.32;63.94
48216;BME280;34005;48.844;10.098;2023-04-01T04:46:58;95345.69;;;9.29;63.83
48216;BME280;34005;48.844;10.098;2023-04-01T04:49:25;95330.31;;;9.27;63.36
48216;BME280;34005;48.844;10.098;2023-04-01T04:51:53;95356.31;;;9.27;63.71
48216;BME280;34005;48.844;10.098;2023-04-01T04:54:20;95356.94;;;9.23;64.23
48216;BME280;34005;48.844;10.098;2023-04-01T04:56:50;95356.94;;;9.23;64.45
48216;BME280;34005;48.844;10.098;2023-04-01T04:59:18;95343.34;;;9.21;63.77
48216;BME280;34005;48.844;10.098;2023-04-01T05:01:46;95350.72;;;9.24;65.39
48216;BME280;34005;48.844;10.098;2023-04-01T05:04:14;95352.34;;;9.25;63.68
48216;BME280;34005;48.844;10.098;2023-04-01T05:06:43;95343.91;;;9.30;65.89
48216;BME280;34005;48.844;10.098;2023-04-01T05:09:11;95353.91;;;9.33;64.85
48216;BME280;34005;48.844;10.098;2023-04-01T05:11:38;95358.13;;;9.34;65.32
48216;BME280;34005;48.844;10.098;2023-04-01T05:14:12;95349.09;;;9.36;65.55
48216;BME280;34005;48.844;10.098;2023-04-01T05:16:39;95348.09;;;9.37;64.72
48216;BME280;34005;48.844;10.098;2023-04-01T05:19:07;95350.69;;;9.37;63.89
48216;BME280;34005;48.844;10.098;2023-04-01T05:21:34;95344.50;;;9.38;65.25
48216;BME280;34005;48.844;10.098;2023-04-01T05:24:02;95351.28;;;9.39;64.74
48216;BME280;34005;48.844;10.098;2023-04-01T05:26:30;95335.66;;;9.39;63.59
48216;BME280;34005;48.844;10.098;2023-04-01T05:28:58;95333.06;;;9.39;64.30
48216;BME280;34005;48.844;10.098;2023-04-01T05:31:27;95344.84;;;9.42;64.37
48216;BME280;34005;48.844;10.098;2023-04-01T05:33:55;95345.25;;;9.45;64.88
48216;BME280;34005;48.844;10.098;2023-04-01T05:36:22;95336.66;;;9.45;64.72
48216;BME280;34005;48.844;10.098;2023-04-01T05:38:50;95340.06;;;9.45;63.33
48216;BME280;34005;48.844;10.098;2023-04-01T05:41:17;95351.66;;;9.49;65.32
48216;BME280;34005;48.844;10.098;2023-04-01T05:43:45;95331.44;;;9.52;64.16
48216;BME280;34005;48.844;10.098;2023-04-01T05:46:13;95332.41;;;9.51;64.56
48216;BME280;34005;48.844;10.098;2023-04-01T05:48:42;95347.22;;;9.57;64.67
48216;BME280;34005;48.844;10.098;2023-04-01T05:51:12;95343.19;;;9.61;65.36
48216;BME280;34005;48.844;10.098;2023-04-01T05:53:39;95334.81;;;9.59;64.93
48216;BME280;34005;48.844;10.098;2023-04-01T05:56:07;95333.22;;;9.58;63.21
48216;BME280;34005;48.844;10.098;2023-04-01T05:58:35;95344.41;;;9.58;63.77
48216;BME280;34005;48.844;10.098;2023-04-01T06:01:05;95348.25;;;9.56;63.48
48216;BME280;34005;48.844;10.098;2023-04-01T06:03:38;95337.59;;;9.57;63.60
48216;BME280;34005;48.844;10.098;2023-04-01T06:06:11;95334.81;;;9.59;64.14
48216;BME280;34005;48.844;10.098;2023-04-01T06:08:42;95338.00;;;9.61;63.83
48216;BME280;34005;48.844;10.098;2023-04-01T06:11:20;95336.00;;;9.63;63.72
48216;BME280;34005;48.844;10.098;2023-04-01T06:13:59;95337.56;;;9.64;63.72
48216;BME280;34005;48.844;10.098;2023-04-01T06:16:39;95348.38;;;9.67;63.07
48216;BME280;34005;48.844;10.098;2023-04-01T06:19:19;95347.75;;;9.72;63.52
48216;BME280;34005;48.844;10.098;2023-04-01T06:22:12;95342.16;;;9.75;63.51
48216;BME280;34005;48.844;10.098;2023-04-01T06:25:02;95346.34;;;9.76;63.26
48216;BME280;34005;48.844;10.098;2023-04-01T06:27:44;95347.13;;;9.77;62.65
48216;BME280;34005;48.844;10.098;2023-04-01T06:30:30;95348.31;;;9.81;62.83
48216;BME280;34005;48.844;10.098;2023-04-01T06:33:15;95348.13;;;9.82;63.23
48216;BME280;34005;48.844;10.098;2023-04-01T06:36:08;95351.69;;;9.88;62.76
48216;BME280;34005;48.844;10.098;2023-04-01T06:39:02;95338.66;;;9.88;62.61
48216;BME280;34005;48.844;10.098;2023-04-01T06:44:55;95341.88;;;9.90;63.05
48216;BME280;34005;48.844;10.098;2023-04-01T06:47:36;95335.44;;;9.93;61.12
48216;BME280;34005;48.844;10.098;2023-04-01T06:50:17;95350.06;;;9.94;59.96
48216;BME280;34005;48.844;10.098;2023-04-01T06:52:50;95324.63;;;9.96;60.45
48216;BME280;34005;48.844;10.098;2023-04-01T06:55:32;95315.38;;;10.00;59.60
48216;BME280;34005;48.844;10.098;2023-04-01T06:58:05;95321.97;;;10.02;61.60
48216;BME280;34005;48.844;10.098;2023-04-01T07:00:40;95315.53;;;10.05;61.21
48216;BME280;34005;48.844;10.098;2023-04-01T07:03:16;95304.13;;;10.06;60.08
48216;BME280;34005;48.844;10.098;2023-04-01T07:05:47;95319.31;;;10.09;60.51
48216;BME280;34005;48.844;10.098;2023-04-01T07:08:17;95310.88;;;10.14;61.20
48216;BME280;34005;48.844;10.098;2023-04-01T07:10:50;95312.84;;;10.18;61.02
48216;BME280;34005;48.844;10.098;2023-04-01T07:13:24;95308.03;;;10.22;60.49
48216;BME280;34005;48.844;10.098;2023-04-01T07:16:03;95319.41;;;10.27;61.18
48216;BME280;34005;48.844;10.098;2023-04-01T07:18:34;95312.19;;;10.29;61.65
48216;BME280;34005;48.844;10.098;2023-04-01T07:21:04;95314.59;;;10.31;61.66
48216;BME280;34005;48.844;10.098;2023-04-01T07:23:42;95321.78;;;10.36;62.54
48216;BME280;34005;48.844;10.098;2023-04-01T07:26:19;95311.94;;;10.38;60.68
48216;BME280;34005;48.844;10.098;2023-04-01T07:28:48;95320.16;;;10.41;60.06
48216;BME280;34005;48.844;10.098;2023-04-01T07:31:22;95324.34;;;10.42;61.57
48216;BME280;34005;48.844;10.098;2023-04-01T07:33:59;95319.91;;;10.43;61.43
48216;BME280;34005;48.844;10.098;2023-04-01T07:36:33;95308.28;;;10.45;61.62
48216;BME280;34005;48.844;10.098;2023-04-01T07:39:10;95318.50;;;10.47;59.65
48216;BME280;34005;48.844;10.098;2023-04-01T07:41:47;95328.50;;;10.50;62.79
48216;BME280;34005;48.844;10.098;2023-04-01T07:44:25;95321.28;;;10.52;60.66
48216;BME280;34005;48.844;10.098;2023-04-01T07:47:06;95322.72;;;10.48;59.56
48216;BME280;34005;48.844;10.098;2023-04-01T07:49:44;95324.78;;;10.39;59.44
48216;BME280;34005;48.844;10.098;2023-04-01T07:52:19;95321.00;;;10.35;62.23
48216;BME280;34005;48.844;10.098;2023-04-01T07:54:53;95325.41;;;10.35;60.07
48216;BME280;34005;48.844;10.098;2023-04-01T07:57:30;95330.03;;;10.33;59.96
48216;BME280;34005;48.844;10.098;2023-04-01T08:00:05;95326.44;;;10.27;61.08
48216;BME280;34005;48.844;10.098;2023-04-01T08:02:47;95333.44;;;10.26;60.93
48216;BME280;34005;48.844;10.098;2023-04-01T08:05:24;95327.84;;;10.23;60.95
48216;BME280;34005;48.844;10.098;2023-04-01T08:08:00;95323.28;;;10.18;62.04
48216;BME280;34005;48.844;10.098;2023-04-01T08:10:33;95331.69;;;10.20;62.67
48216;BME280;34005;48.844;10.098;2023-04-01T08:13:10;95331.28;;;10.23;62.43
48216;BME280;34005;48.844;10.098;2023-04-01T08:15:46;95324.88;;;10.19;62.49
48216;BME280;34005;48.844;10.098;2023-04-01T08:18:26;95333.50;;;10.20;62.84
48216;BME280;34005;48.844;10.098;2023-04-01T08:20:59;95327.50;;;10.19;63.13
48216;BME280;34005;48.844;10.098;2023-04-01T08:23:27;95324.06;;;10.19;63.81
48216;BME280;34005;48.844;10.098;2023-04-01T08:26:01;95328.28;;;10.20;63.10
48216;BME280;34005;48.844;10.098;2023-04-01T08:28:35;95331.69;;;10.20;63.49
48216;BME280;34005;48.844;10.098;2023-04-01T08:31:09;95333.28;;;10.21;63.34
48216;BME280;34005;48.844;10.098;2023-04-01T08:33:40;95341.69;;;10.23;64.24
48216;BME280;34005;48.844;10.098;2023-04-01T08:36:12;95329.81;;;10.27;64.94
48216;BME280;34005;48.844;10.098;2023-04-01T08:38:44;95332.84;;;10.31;66.52
48216;BME280;34005;48.844;10.098;2023-04-01T08:41:34;95334.03;;;10.28;67.67
48216;BME280;34005;48.844;10.098;2023-04-01T08:44:20;95336.84;;;10.34;67.62
48216;BME280;34005;48.844;10.098;2023-04-01T08:47:09;95334.19;;;10.40;68.99
48216;BME280;34005;48.844;10.098;2023-04-01T08:50:06;95333.38;;;10.40;65.77
48216;BME280;34005;48.844;10.098;2023-04-01T08:52:48;95339.63;;;10.39;68.16
48216;BME280;34005;48.844;10.098;2023-04-01T08:55:27;95328.19;;;10.40;67.97
48216;BME280;34005;48.844;10.098;2023-04-01T08:58:31;95319.91;;;10.43;68.41
48216;BME280;34005;48.844;10.098;2023-04-01T09:01:19;95335.22;;;10.39;64.67
48216;BME280;34005;48.844;10.098;2023-04-01T09:04:08;95336.84;;;10.34;67.38
48216;BME280;34005;48.844;10.098;2023-04-01T09:06:50;95333.59;;;10.38;67.68
48216;BME280;34005;48.844;10.098;2023-04-01T09:09:28;95329.56;;;10.42;66.27
48216;BME280;34005;48.844;10.098;2023-04-01T09:24:41;95343.44;;;10.36;66.55
48216;BME280;34005;48.844;10.098;2023-04-01T09:27:21;95346.03;;;10.36;65.92
48216;BME280;34005;48.844;10.098;2023-04-01T09:30:31;95346.84;;;10.37;65.52
48216;BME280;34005;48.844;10.098;2023-04-01T09:33:13;95352.06;;;10.37;66.32
48216;BME280;34005;48.844;10.098;2023-04-01T09:35:47;95350.25;;;10.37;64.26
48216;BME280;34005;48.844;10.098;2023-04-01T09:38:21;95352.88;;;10.37;63.92
48216;BME280;34005;48.844;10.098;2023-04-01T09:40:55;95360.25;;;10.40;64.74
48216;BME280;34005;48.844;10.098;2023-04-01T09:43:28;95362.84;;;10.40;63.44
48216;BME280;34005;48.844;10.098;2023-04-01T09:49:21;95376.13;;;10.39;63.71
48216;BME280;34005;48.844;10.098;2023-04-01T09:52:08;95370.31;;;10.37;63.54
48216;BME280;34005;48.844;10.098;2023-04-01T09:54:52;95374.94;;;10.35;66.35
48216;BME280;34005;48.844;10.098;2023-04-01T10:00:53;95363.13;;;10.32;65.60
48216;BME280;34005;48.844;10.098;2023-04-01T10:07:16;95374.56;;;10.31;65.56
48216;BME280;34005;48.844;10.098;2023-04-01T10:12:59;95365.50;;;10.34;66.18
48216;BME280;34005;48.844;10.098;2023-04-01T10:15:47;95356.69;;;10.35;68.37
48216;BME280;34005;48.844;10.098;2023-04-01T10:21:47;95354.69;;;10.37;67.79
48216;BME280;34005;48.844;10.098;2023-04-01T10:24:47;95369.88;;;10.40;68.27
48216;BME280;34005;48.844;10.098;2023-04-01T10:27:22;95361.88;;;10.41;67.03
48216;BME280;34005;48.844;10.098;2023-04-01T10:30:20;95363.25;;;10.44;67.60
48216;BME280;34005;48.844;10.098;2023-04-01T10:33:10;95358.47;;;10.41;66.60
48216;BME280;34005;48.844;10.098;2023-04-01T10:36:02;95364.47;;;10.41;67.35
48216;BME280;34005;48.844;10.098;2023-04-01T10:39:12;95370.03;;;10.45;66.02
48216;BME280;34005;48.844;10.098;2023-04-01T10:42:08;95371.28;;;10.42;67.58
48216;BME280;34005;48.844;10.098;2023-04-01T10:45:18;95369.44;;;10.43;67.12
48216;BME280;34005;48.844;10.098;2023-04-01T10:48:17;95363.69;;;10.34;66.56
48216;BME280;34005;48.844;10.098;2023-04-01T10:51:04;95376.97;;;10.33;68.56
48216;BME280;34005;48.844;10.098;2023-04-01T10:53:44;95365.75;;;10.32;67.79
48216;BME280;34005;48.844;10.098;2023-04-01T10:56:36;95375.72;;;10.35;66.97
48216;BME280;34005;48.844;10.098;2023-04-01T10:59:41;95373.31;;;10.34;67.75
48216;BME280;34005;48.844;10.098;2023-04-01T11:02:56;95366.53;;;10.33;67.66
48216;BME280;34005;48.844;10.098;2023-04-01T11:08:50;95371.91;;;10.38;66.67
48216;BME280;34005;48.844;10.098;2023-04-01T11:18:05;95377.31;;;10.36;65.84
48216;BME280;34005;48.844;10.098;2023-04-01T11:21:02;95375.53;;;10.37;66.31
48216;BME280;34005;48.844;10.098;2023-04-01T11:23:53;95385.38;;;10.35;68.04
48216;BME280;34005;48.844;10.098;2023-04-01T11:26:43;95386.94;;;10.36;67.81
48216;BME280;34005;48.844;10.098;2023-04-01T11:29:31;95388.34;;;10.38;68.61
48216;BME280;34005;48.844;10.098;2023-04-01T11:32:26;95388.13;;;10.40;67.10
48216;BME280;34005;48.844;10.098;2023-04-01T11:35:07;95389.75;;;10.34;68.59
48216;BME280;34005;48.844;10.098;2023-04-01T11:37:45;95389.19;;;10.32;67.82
48216;BME280;34005;48.844;10.098;2023-04-01T11:40:26;95386.78;;;10.30;67.10
48216;BME280;34005;48.844;10.098;2023-04-01T11:43:01;95406.03;;;10.29;68.07
48216;BME280;34005;48.844;10.098;2023-04-01T11:45:36;95394.97;;;10.27;67.92
48216;BME280;34005;48.844;10.098;2023-04-01T11:48:22;95394.63;;;10.30;68.83
48216;BME280;34005;48.844;10.098;2023-04-01T11:51:07;95391.56;;;10.34;69.16
48216;BME280;34005;48.844;10.098;2023-04-01T11:53:44;95396.59;;;10.35;70.16
48216;BME280;34005;48.844;10.098;2023-04-01T11:56:28;95400.19;;;10.41;70.45
48216;BME280;34005;48.844;10.098;2023-04-01T12:01:59;95407.72;;;10.49;68.54
48216;BME280;34005;48.844;10.098;2023-04-01T12:04:50;95408.16;;;10.46;67.20
48216;BME280;34005;48.844;10.098;2023-04-01T12:07:27;95409.16;;;10.45;68.92
48216;BME280;34005;48.844;10.098;2023-04-01T12:10:05;95405.56;;;10.46;69.30
48216;BME280;34005;48.844;10.098;2023-04-01T12:12:48;95409.38;;;10.43;68.96
48216;BME280;34005;48.844;10.098;2023-04-01T12:15:33;95408.78;;;10.41;67.72
48216;BME280;34005;48.844;10.098;2023-04-01T12:18:09;95410.16;;;10.44;68.44
48216;BME280;34005;48.844;10.098;2023-04-01T12:20:49;95402.94;;;10.46;68.83
48216;BME280;34005;48.844;10.098;2023-04-01T12:23:39;95405.34;;;10.47;69.59
48216;BME280;34005;48.844;10.098;2023-04-01T12:26:19;95407.31;;;10.52;69.40
48216;BME280;34005;48.844;10.098;2023-04-01T12:29:06;95407.91;;;10.54;68.55
48216;BME280;34005;48.844;10.098;2023-04-01T12:31:44;95399.66;;;10.57;69.99
48216;BME280;34005;48.844;10.098;2023-04-01T12:34:34;95410.25;;;10.62;69.63
48216;BME280;34005;48.844;10.098;2023-04-01T12:37:13;95413.63;;;10.69;70.07
48216;BME280;34005;48.844;10.098;2023-04-01T12:40:01;95413.00;;;10.74;69.97
48216;BME280;34005;48.844;10.098;2023-04-01T12:42:44;95407.53;;;10.76;68.05
48216;BME280;34005;48.844;10.098;2023-04-01T12:45:27;95409.59;;;10.74;69.02
48216;BME280;34005;48.844;10.098;2023-04-01T12:48:19;95404.78;;;10.70;69.59
48216;BME280;34005;48.844;10.098;2023-04-01T12:51:00;95407.81;;;10.67;68.96
48216;BME280;34005;48.844;10.098;2023-04-01T12:53:51;95402.03;;;10.65;68.25
48216;BME280;34005;48.844;10.098;2023-04-01T12:56:31;95418.03;;;10.69;70.21
48216;BME280;34005;48.844;10.098;2023-04-01T12:59:27;95416.38;;;10.75;69.67
48216;BME280;34005;48.844;10.098;2023-04-01T13:02:13;95416.97;;;10.77;67.66
48216;BME280;34005;48.844;10.098;2023-04-01T13:05:10;95415.97;;;10.78;68.88
48216;BME280;34005;48.844;10.098;2023-04-01T13:07:58;95420.19;;;10.79;68.66
48216;BME280;34005;48.844;10.098;2023-04-01T13:10:44;95426.78;;;10.81;69.63
48216;BME280;34005;48.844;10.098;2023-04-01T13:13:37;95428.16;;;10.84;68.52
48216;BME280;34005;48.844;10.098;2023-04-01T13:16:11;95422.75;;;10.85;68.97
48216;BME280;34005;48.844;10.098;2023-04-01T13:18:53;95421.94;;;10.85;68.87
48216;BME280;34005;48.844;10.098;2023-04-01T13:21:33;95431.94;;;10.88;67.87
48216;BME280;34005;48.844;10.098;2023-04-01T13:24:09;95428.50;;;10.94;68.86
48216;BME280;34005;48.844;10.098;2023-04-01T13:26:50;95432.28;;;10.98;69.46
48216;BME280;34005;48.844;10.098;2023-04-01T13:29:23;95421.41;;;11.01;68.27
48216;BME280;34005;48.844;10.098;2023-04-01T13:32:03;95436.06;;;11.02;69.61
48216;BME280;34005;48.844;10.098;2023-04-01T13:34:42;95430.41;;;11.05;69.19
48216;BME280;34005;48.844;10.098;2023-04-01T13:37:26;95446.84;;;11.06;67.56
48216;BME280;34005;48.844;10.098;2023-04-01T13:40:13;95430.41;;;11.05;68.65
48216;BME280;34005;48.844;10.098;2023-04-01T13:42:49;95432.22;;;11.05;68.65
48216;BME280;34005;48.844;10.098;2023-04-01T13:45:23;95429.41;;;11.06;69.08
48216;BME280;34005;48.844;10.098;2023-04-01T13:48:09;95440.84;;;11.05;67.65
48216;BME280;34005;48.844;10.098;2023-04-01T13:51:10;95428.81;;;11.04;67.89
48216;BME280;34005;48.844;10.098;2023-04-01T13:53:53;95444.03;;;11.07;68.48
48216;BME280;34005;48.844;10.098;2023-04-01T13:56:34;95441.59;;;11.12;68.33
48216;BME280;34005;48.844;10.098;2023-04-01T14:02:24;95437.81;;;11.08;68.63
48216;BME280;34005;48.844;10.098;2023-04-01T14:05:09;95454.69;;;11.06;67.66
48216;BME280;34005;48.844;10.098;2023-04-01T14:07:50;95451.50;;;11.04;68.84
48216;BME280;34005;48.844;10.098;2023-04-01T14:10:31;95447.50;;;11.01;68.53
48216;BME280;34005;48.844;10.098;2023-04-01T14:13:07;95440.25;;;11.03;68.80
48216;BME280;34005;48.844;10.098;2023-04-01T14:15:49;95448.88;;;11.04;69.98
48216;BME280;34005;48.844;10.098;2023-04-01T14:18:35;95446.66;;;11.07;69.08
48216;BME280;34005;48.844;10.098;2023-04-01T14:21:13;95445.06;;;11.06;68.90
48216;BME280;34005;48.844;10.098;2023-04-01T14:24:08;95452.31;;;11.04;70.04
48216;BME280;34005;48.844;10.098;2023-04-01T14:29:44;95462.38;;;11.01;69.38
48216;BME280;34005;48.844;10.098;2023-04-01T14:32:24;95458.97;;;11.00;69.69